Abbeville, Louisiana
Current Conditions -  °F | °C
As of 11:50 AM on Friday 31 Oct 2014 (Local Time) from KIYA Reporting Station
Clear Clear  
Wind Chill: 73°   Ceiling: Unl
Heat Index: 73°   Visibility: 10mi
Dew Point: 46°   Wind: 16mph
Humidity: 38%   Direction: 340°NNW
Pressure: 30.11"   Gusts: 20mph
Location:  29.97°N, 92.13°W
Report Text: KIYA 311650Z AUTO 34014G17KT 10SM CLR 23/08 A3011 RMK AO2 T02260077
Loading
Personal Weather Stations






























Interactive Weather Map
Tropical Storm Tracking
New forecast layout! Learn more

10-Day Weather Forecast

Advertisements
Track Severe Weather on mobile